Terminal Aerodrome Forecast
Issued by NWS Albany, NY

Home | Current Version | Previous Version | Text Only | Print | Product List | Glossary On
Versions: 1 2 3 4 5 6 7 8 9 10 11 12 13 14 15 16 17 18 19 20 21 22 23 24
000
FTUS41 KALY 250816 AAB
TAFGFL
TAF AMD
KGFL 250816Z 2508/2606 00000KT 1/2SM FG VV002
      TEMPO 2508/2511 2SM BR SCT002 BKN010
     FM251100 20005KT P6SM FEW150
     FM251600 25008KT P6SM SCT050
     FM260300 30004KT P6SM SCT250=

USA.gov is the U.S. government's official web portal to all federal, state and local government web resources and services.